Time;durP1;ratioP1;P1;durP2;ratioP2;P2;SDS_P1;SDS_P2;PMS_P1;PMS_P2;Temp;Humidity;BMP_temperature;BMP_pressure;BME280_temperature;BME280_humidity;BME280_pressure;Samples;Min_cycle;Max_cycle;Signal;HPM_P1;HPM_P2
2022/06/27 00:02:17;;;;;;;10.30;4.60;;;19.20;99.90;;;;;;5135814;27;20209;-49
2022/06/27 00:04:43;;;;;;;10.05;5.00;;;19.20;99.90;;;;;;5135357;27;20236;-49
2022/06/27 00:07:08;;;;;;;8.95;4.97;;;19.20;99.90;;;;;;5135244;27;20600;-49
2022/06/27 00:09:34;;;;;;;11.70;4.88;;;19.20;99.90;;;;;;5135066;27;20216;-50
2022/06/27 00:12:00;;;;;;;10.40;5.03;;;19.10;99.90;;;;;;5135243;27;20164;-49
2022/06/27 00:14:29;;;;;;;6.55;5.13;;;19.10;99.90;;;;;;5135342;27;20186;-50
2022/06/27 00:16:54;;;;;;;11.25;4.90;;;19.10;99.90;;;;;;5135078;27;20255;-50
2022/06/27 00:19:20;;;;;;;8.15;5.25;;;19.10;99.90;;;;;;5134992;27;20210;-49
2022/06/27 00:21:46;;;;;;;7.05;4.68;;;19.10;99.90;;;;;;5135206;27;20207;-49
2022/06/27 00:24:11;;;;;;;10.20;4.97;;;19.10;99.90;;;;;;5134879;27;20719;-49
2022/06/27 00:26:37;;;;;;;6.65;4.65;;;19.10;99.90;;;;;;5134523;27;20176;-49
2022/06/27 00:29:03;;;;;;;8.25;5.70;;;19.10;99.90;;;;;;5134813;27;20161;-49
2022/06/27 00:31:28;;;;;;;13.25;5.40;;;19.10;99.90;;;;;;5134754;27;20530;-49
2022/06/27 00:33:54;;;;;;;8.27;5.45;;;19.00;99.90;;;;;;5134736;27;20167;-49
2022/06/27 00:36:20;;;;;;;12.05;5.18;;;19.10;99.90;;;;;;5134921;27;20164;-49
2022/06/27 00:38:45;;;;;;;6.78;4.63;;;19.10;99.90;;;;;;5134944;27;20160;-50
2022/06/27 00:41:11;;;;;;;14.48;5.18;;;19.10;99.90;;;;;;5134501;27;20215;-49
2022/06/27 00:43:36;;;;;;;7.10;4.45;;;19.10;99.90;;;;;;5134547;27;20633;-50
2022/06/27 00:46:02;;;;;;;12.23;5.18;;;19.10;99.90;;;;;;5134597;27;20171;-50
2022/06/27 00:48:28;;;;;;;13.05;5.03;;;19.00;99.90;;;;;;5134585;27;20171;-50
2022/06/27 00:50:54;;;;;;;11.27;5.18;;;19.00;99.90;;;;;;5134642;27;20680;-49
2022/06/27 00:53:20;;;;;;;12.63;4.90;;;19.00;99.90;;;;;;5134483;27;20172;-50
2022/06/27 00:55:46;;;;;;;12.25;4.68;;;18.90;99.90;;;;;;5134851;27;20167;-50
2022/06/27 00:58:11;;;;;;;13.98;4.85;;;18.90;99.90;;;;;;5134192;27;20175;-50
2022/06/27 01:00:37;;;;;;;9.55;4.47;;;18.80;99.90;;;;;;5134223;27;20708;-50
2022/06/27 01:03:02;;;;;;;8.27;4.75;;;18.80;99.90;;;;;;5134156;27;20178;-49
2022/06/27 01:05:28;;;;;;;11.75;4.85;;;18.70;99.90;;;;;;5134114;27;20198;-49
2022/06/27 01:07:54;;;;;;;13.80;4.22;;;18.70;99.90;;;;;;5134049;27;20167;-49
2022/06/27 01:10:19;;;;;;;8.48;4.80;;;18.70;99.90;;;;;;5133733;27;20287;-49
2022/06/27 01:12:45;;;;;;;10.70;4.35;;;18.60;99.90;;;;;;5134284;27;20216;-49
2022/06/27 01:15:12;;;;;;;9.88;4.43;;;18.60;99.90;;;;;;5134187;27;20171;-49
2022/06/27 01:17:38;;;;;;;10.45;4.05;;;18.60;99.90;;;;;;5133892;27;20659;-49
2022/06/27 01:20:04;;;;;;;9.88;4.43;;;18.60;99.90;;;;;;5133789;27;20633;-49
2022/06/27 01:22:30;;;;;;;14.27;4.65;;;18.70;99.90;;;;;;5133947;27;20524;-49
2022/06/27 01:24:56;;;;;;;14.32;4.82;;;18.70;99.90;;;;;;5133774;27;20175;-49
2022/06/27 01:27:22;;;;;;;10.20;4.53;;;18.70;99.90;;;;;;5133928;27;20176;-49
2022/06/27 01:29:48;;;;;;;12.27;4.38;;;18.70;99.90;;;;;;5134034;27;20585;-49
2022/06/27 01:32:13;;;;;;;10.13;4.85;;;18.70;99.90;;;;;;5133644;27;20685;-49
2022/06/27 01:34:39;;;;;;;11.65;4.57;;;18.70;99.90;;;;;;5133626;27;20247;-49
2022/06/27 01:37:05;;;;;;;8.20;4.78;;;18.80;99.90;;;;;;5133520;27;20516;-49
2022/06/27 01:39:31;;;;;;;6.38;4.10;;;18.70;99.90;;;;;;5132897;27;20647;-49
2022/06/27 01:42:02;;;;;;;14.60;4.63;;;18.80;99.90;;;;;;5133413;27;20222;-50
2022/06/27 01:44:30;;;;;;;12.43;4.57;;;18.70;99.90;;;;;;5133396;27;20201;-50
2022/06/27 01:46:59;;;;;;;14.00;4.60;;;18.70;99.90;;;;;;5133438;27;20199;-50
2022/06/27 01:49:25;;;;;;;15.52;4.43;;;18.80;99.90;;;;;;5133374;27;20597;-50
2022/06/27 01:51:51;;;;;;;11.07;4.63;;;18.80;99.90;;;;;;5133314;27;20171;-49
2022/06/27 01:54:20;;;;;;;14.07;4.63;;;18.70;99.90;;;;;;5133782;27;20164;-51
2022/06/27 01:56:46;;;;;;;9.43;4.05;;;18.80;99.90;;;;;;5133781;27;20179;-49
2022/06/27 01:59:14;;;;;;;16.45;4.65;;;18.80;99.90;;;;;;5133173;27;20156;-50
2022/06/27 02:01:41;;;;;;;13.77;5.05;;;18.70;99.90;;;;;;5132986;27;20206;-50
2022/06/27 02:04:08;;;;;;;10.88;4.57;;;18.70;99.90;;;;;;5133135;27;20164;-50
2022/06/27 02:06:34;;;;;;;18.67;5.05;;;18.70;99.90;;;;;;5133041;27;20160;-49
2022/06/27 02:09:04;;;;;;;18.10;5.72;;;18.60;99.90;;;;;;5132972;27;20171;-49
2022/06/27 02:11:30;;;;;;;20.05;5.28;;;18.50;99.90;;;;;;5133019;27;20569;-49
2022/06/27 02:13:57;;;;;;;12.98;5.35;;;18.60;99.90;;;;;;5132954;27;20168;-49
2022/06/27 02:16:23;;;;;;;19.63;4.97;;;18.50;99.90;;;;;;5132900;27;20172;-49
2022/06/27 02:18:49;;;;;;;19.67;5.72;;;18.50;99.90;;;;;;5133007;28;20164;-49
2022/06/27 02:21:18;;;;;;;11.38;5.65;;;18.50;99.90;;;;;;5133107;28;20208;-49
2022/06/27 02:23:43;;;;;;;9.93;5.80;;;18.60;99.90;;;;;;5132783;28;20172;-49
2022/06/27 02:26:11;;;;;;;9.07;5.60;;;18.50;99.90;;;;;;5132837;28;20164;-49
2022/06/27 02:28:37;;;;;;;11.05;6.53;;;18.50;99.90;;;;;;5132745;28;20158;-49
2022/06/27 02:31:05;;;;;;;12.35;6.53;;;18.50;99.90;;;;;;5132830;28;20164;-49
2022/06/27 02:33:43;;;;;;;12.95;7.18;;;18.50;99.90;;;;;;5132786;28;20163;-49
2022/06/27 02:36:13;;;;;;;13.02;7.15;;;18.50;99.90;;;;;;5132702;28;20166;-49
2022/06/27 02:38:41;;;;;;;9.00;6.82;;;18.50;99.90;;;;;;5132966;28;20573;-49
2022/06/27 02:41:10;;;;;;;10.52;6.53;;;18.40;99.90;;;;;;5132594;28;20240;-49
2022/06/27 02:43:38;;;;;;;11.38;8.05;;;18.40;99.90;;;;;;5132706;28;20632;-49
2022/06/27 02:46:04;;;;;;;11.02;8.38;;;18.30;99.90;;;;;;5132567;28;20243;-49
2022/06/27 02:48:32;;;;;;;10.90;7.32;;;18.30;99.90;;;;;;5132649;27;20185;-49
2022/06/27 02:51:05;;;;;;;10.52;7.55;;;18.40;99.90;;;;;;5136441;27;20164;-49
2022/06/27 02:53:42;;;;;;;11.45;8.05;;;18.30;99.90;;;;;;5136921;27;20176;-49
2022/06/27 02:56:10;;;;;;;13.55;8.55;;;18.30;99.90;;;;;;5136646;27;20171;-49
2022/06/27 02:58:51;;;;;;;12.32;8.07;;;18.30;99.90;;;;;;5136491;27;20624;-50
2022/06/27 03:01:19;;;;;;;11.57;8.68;;;18.40;99.90;;;;;;5136707;27;20200;-50
2022/06/27 03:03:47;;;;;;;11.40;7.93;;;18.40;99.90;;;;;;5136884;27;20251;-50
2022/06/27 03:06:12;;;;;;;10.30;8.00;;;18.40;99.90;;;;;;5136466;27;20164;-50
2022/06/27 03:08:46;;;;;;;9.38;7.38;;;18.40;99.90;;;;;;5136408;27;20561;-50
2022/06/27 03:11:14;;;;;;;10.18;8.52;;;18.40;99.90;;;;;;5136305;27;20191;-50
2022/06/27 03:13:41;;;;;;;12.95;8.00;;;18.40;99.90;;;;;;5136519;27;20168;-50
2022/06/27 03:16:08;;;;;;;11.95;9.50;;;18.40;99.90;;;;;;5117853;27;20160;-50
2022/06/27 03:18:33;;;;;;;11.90;8.15;;;18.40;99.90;;;;;;5136312;27;20160;-50
2022/06/27 03:20:59;;;;;;;13.48;9.18;;;18.50;99.90;;;;;;5136111;27;20666;-51
2022/06/27 03:23:25;;;;;;;13.85;8.60;;;18.50;99.90;;;;;;5136245;27;20168;-51
2022/06/27 03:25:51;;;;;;;9.88;8.05;;;18.50;99.90;;;;;;5136153;27;20232;-50
2022/06/27 03:28:17;;;;;;;10.40;8.25;;;18.60;99.90;;;;;;5136324;27;20160;-50
2022/06/27 03:30:43;;;;;;;10.55;8.20;;;18.60;99.90;;;;;;5135953;27;20179;-50
2022/06/27 03:33:09;;;;;;;11.05;8.02;;;18.60;99.90;;;;;;5135940;27;20171;-50
2022/06/27 03:35:34;;;;;;;11.35;8.63;;;18.60;99.90;;;;;;5135886;27;20164;-50
2022/06/27 03:38:00;;;;;;;12.52;9.05;;;18.60;99.90;;;;;;5135875;27;20168;-50
2022/06/27 03:40:26;;;;;;;13.98;9.18;;;18.60;99.90;;;;;;5135853;27;20268;-50
2022/06/27 03:42:51;;;;;;;9.57;8.60;;;18.70;99.90;;;;;;5135680;27;20176;-50
2022/06/27 03:45:17;;;;;;;12.20;8.45;;;18.70;99.90;;;;;;5136141;27;20164;-51
2022/06/27 03:47:53;;;;;;;14.55;8.93;;;18.60;99.90;;;;;;5135720;27;20164;-50
2022/06/27 03:50:19;;;;;;;12.82;9.02;;;18.60;99.90;;;;;;5136037;27;20152;-50
2022/06/27 03:52:45;;;;;;;13.05;9.73;;;18.60;99.90;;;;;;5135621;27;20255;-50
2022/06/27 03:55:12;;;;;;;11.35;8.55;;;18.60;99.90;;;;;;5135377;27;20183;-50
2022/06/27 03:57:46;;;;;;;16.55;9.32;;;18.60;99.90;;;;;;5135441;27;20214;-50
2022/06/27 04:00:12;;;;;;;11.93;8.57;;;18.50;99.90;;;;;;5135042;27;20192;-50
2022/06/27 04:02:38;;;;;;;11.05;8.95;;;18.60;99.90;;;;;;5134697;27;20252;-49
2022/06/27 04:05:04;;;;;;;13.70;8.95;;;18.60;99.90;;;;;;5135261;27;20613;-49
2022/06/27 04:07:30;;;;;;;12.98;9.00;;;18.60;99.90;;;;;;5135216;27;20582;-50
2022/06/27 04:09:56;;;;;;;17.35;10.40;;;18.60;99.90;;;;;;5135097;27;20340;-49
2022/06/27 04:12:22;;;;;;;12.32;9.25;;;18.60;99.90;;;;;;5135214;27;20179;-49
2022/06/27 04:14:48;;;;;;;10.00;8.90;;;18.60;99.90;;;;;;5135388;27;20624;-50
2022/06/27 04:17:14;;;;;;;14.57;9.57;;;18.60;99.90;;;;;;5135442;27;20233;-50
2022/06/27 04:19:39;;;;;;;12.93;10.00;;;18.60;99.90;;;;;;5135109;27;20255;-49
2022/06/27 04:22:05;;;;;;;18.33;9.95;;;18.70;99.90;;;;;;5135039;27;20551;-50
2022/06/27 04:24:31;;;;;;;14.55;10.07;;;18.60;99.90;;;;;;5134988;27;20168;-50
2022/06/27 04:26:57;;;;;;;12.95;10.20;;;18.70;99.90;;;;;;5134497;27;20164;-49
2022/06/27 04:29:23;;;;;;;11.00;9.55;;;18.70;99.90;;;;;;5134626;27;20174;-50
2022/06/27 04:31:49;;;;;;;10.82;9.70;;;18.60;99.90;;;;;;5116360;27;20273;-49
2022/06/27 04:34:15;;;;;;;11.68;9.50;;;18.70;99.90;;;;;;5135018;27;20172;-50
2022/06/27 04:36:41;;;;;;;15.32;10.35;;;18.70;99.90;;;;;;5134672;27;20632;-50
2022/06/27 04:39:08;;;;;;;11.13;9.23;;;18.80;99.90;;;;;;5134726;27;20172;-50
2022/06/27 04:41:33;;;;;;;13.45;8.82;;;18.70;99.90;;;;;;5134690;27;20207;-50
2022/06/27 04:43:59;;;;;;;15.68;8.60;;;18.70;99.90;;;;;;5134574;27;20233;-50
2022/06/27 04:46:24;;;;;;;14.45;8.48;;;18.70;99.90;;;;;;5116110;27;20703;-49
2022/06/27 04:48:51;;;;;;;11.55;8.13;;;18.60;99.90;;;;;;5134688;27;20160;-49
2022/06/27 04:51:16;;;;;;;11.98;8.95;;;18.80;99.90;;;;;;5134735;27;20164;-50
2022/06/27 04:53:44;;;;;;;20.00;10.38;;;18.70;99.90;;;;;;5134347;27;20164;-50
2022/06/27 04:56:11;;;;;;;17.98;9.50;;;18.70;99.90;;;;;;5134580;27;20536;-50
2022/06/27 04:58:37;;;;;;;17.08;9.98;;;18.70;99.90;;;;;;5134512;27;20176;-50
2022/06/27 05:01:03;;;;;;;13.93;9.18;;;18.80;99.90;;;;;;5134063;27;20199;-50
2022/06/27 05:03:29;;;;;;;15.23;9.77;;;18.80;99.90;;;;;;5134192;27;20247;-50
2022/06/27 05:05:55;;;;;;;15.77;9.93;;;19.00;99.90;;;;;;5134128;27;20297;-50
2022/06/27 05:08:20;;;;;;;11.95;9.75;;;19.10;99.90;;;;;;5134126;27;20229;-50
2022/06/27 05:10:47;;;;;;;9.90;7.82;;;19.20;99.90;;;;;;5134257;27;20288;-50
2022/06/27 05:13:13;;;;;;;13.27;9.68;;;19.20;99.90;;;;;;5134098;27;20238;-50
2022/06/27 05:15:39;;;;;;;13.38;9.45;;;19.30;99.90;;;;;;5134190;27;20567;-49
2022/06/27 05:18:06;;;;;;;11.50;9.07;;;19.40;99.90;;;;;;5134063;27;20578;-49
2022/06/27 05:20:32;;;;;;;13.95;9.52;;;19.50;99.90;;;;;;5133735;27;20640;-50
2022/06/27 05:23:00;;;;;;;13.65;9.25;;;19.50;99.90;;;;;;5133705;27;20228;-49
2022/06/27 05:25:26;;;;;;;14.02;9.40;;;19.60;99.90;;;;;;5133920;27;20168;-50
2022/06/27 05:27:52;;;;;;;12.73;8.77;;;19.60;99.90;;;;;;5133655;27;20168;-50
2022/06/27 05:30:18;;;;;;;11.13;8.88;;;19.60;99.90;;;;;;5133967;27;20166;-50
2022/06/27 05:32:44;;;;;;;11.50;8.27;;;19.60;99.90;;;;;;5133356;27;20214;-51
2022/06/27 05:35:10;;;;;;;11.73;8.45;;;19.50;99.90;;;;;;5133527;27;20639;-50
2022/06/27 05:37:37;;;;;;;11.15;9.30;;;19.60;99.90;;;;;;5133383;27;20184;-50
2022/06/27 05:40:03;;;;;;;10.57;8.68;;;19.60;99.90;;;;;;5133376;27;20251;-50
2022/06/27 05:42:29;;;;;;;9.50;8.55;;;19.60;99.90;;;;;;5133320;27;20278;-50
2022/06/27 05:44:55;;;;;;;13.10;8.93;;;19.70;99.90;;;;;;5133644;27;20191;-50
2022/06/27 05:47:21;;;;;;;10.00;8.77;;;19.70;99.90;;;;;;5133493;27;20624;-49
2022/06/27 05:49:48;;;;;;;10.90;8.85;;;19.50;99.90;;;;;;5133881;27;20179;-49
2022/06/27 05:52:14;;;;;;;10.82;9.25;;;19.30;99.90;;;;;;5133699;27;20184;-50
2022/06/27 05:54:40;;;;;;;12.40;8.88;;;19.20;99.90;;;;;;5133519;27;20618;-50
2022/06/27 05:57:06;;;;;;;11.18;9.30;;;19.10;99.90;;;;;;5133325;27;20172;-50
2022/06/27 05:59:33;;;;;;;9.88;8.88;;;19.00;99.90;;;;;;5133150;27;20242;-50
2022/06/27 06:02:00;;;;;;;10.80;8.63;;;19.00;99.90;;;;;;5133184;27;20208;-50
2022/06/27 06:04:26;;;;;;;10.25;8.57;;;19.10;99.90;;;;;;5132924;27;20213;-51
2022/06/27 06:06:52;;;;;;;11.68;9.00;;;19.20;99.90;;;;;;5133438;27;20204;-50
2022/06/27 06:09:18;;;;;;;10.38;8.95;;;19.30;99.90;;;;;;5133459;27;20207;-51
2022/06/27 06:11:48;;;;;;;12.00;9.68;;;19.40;99.90;;;;;;5133477;27;20685;-51
2022/06/27 06:14:16;;;;;;;8.77;7.97;;;19.40;99.90;;;;;;5133504;27;20228;-51
2022/06/27 06:16:42;;;;;;;11.80;8.95;;;19.40;99.90;;;;;;5133136;27;20176;-51
2022/06/27 06:19:09;;;;;;;10.82;8.93;;;19.50;99.90;;;;;;5132901;27;20333;-51
2022/06/27 06:21:34;;;;;;;13.02;8.70;;;19.40;99.90;;;;;;5132692;28;20220;-51
2022/06/27 06:24:01;;;;;;;9.15;8.23;;;19.50;99.90;;;;;;5132549;27;20168;-51
2022/06/27 06:26:27;;;;;;;9.68;8.68;;;19.50;99.90;;;;;;5133111;28;20224;-50
2022/06/27 06:28:53;;;;;;;10.32;9.25;;;19.50;99.90;;;;;;5132720;28;20167;-50
2022/06/27 06:31:22;;;;;;;10.57;8.52;;;19.60;99.90;;;;;;5133059;28;20179;-50
2022/06/27 06:33:52;;;;;;;10.38;8.80;;;19.50;99.90;;;;;;5133283;28;20172;-51
2022/06/27 06:36:21;;;;;;;11.88;9.05;;;19.50;99.90;;;;;;5132962;28;20239;-51
2022/06/27 06:38:47;;;;;;;10.27;8.13;;;19.40;99.90;;;;;;5133276;28;20168;-50
2022/06/27 06:41:13;;;;;;;10.25;8.50;;;19.40;99.90;;;;;;5132462;28;20196;-55
2022/06/27 06:43:38;;;;;;;9.75;8.73;;;19.40;99.90;;;;;;5132657;28;20172;-53
2022/06/27 06:46:05;;;;;;;11.10;9.32;;;19.40;99.90;;;;;;5132504;28;20167;-52
2022/06/27 06:48:32;;;;;;;11.70;9.32;;;19.50;99.90;;;;;;5132786;28;20254;-51
2022/06/27 06:50:58;;;;;;;9.68;8.20;;;19.50;99.90;;;;;;5132553;28;20201;-52
2022/06/27 06:53:23;;;;;;;10.32;7.93;;;19.60;99.90;;;;;;5132514;28;20164;-52
2022/06/27 06:55:50;;;;;;;13.43;9.43;;;19.60;99.90;;;;;;5132516;28;20171;-52
2022/06/27 06:58:17;;;;;;;9.10;8.20;;;19.80;99.90;;;;;;5133009;28;20208;-52
2022/06/27 07:00:43;;;;;;;13.77;9.50;;;19.80;99.90;;;;;;5132357;28;20227;-51
2022/06/27 07:03:10;;;;;;;13.05;9.57;;;19.80;99.90;;;;;;5132344;28;20191;-52
2022/06/27 07:05:37;;;;;;;16.17;10.43;;;19.80;99.90;;;;;;5132373;28;20153;-53
2022/06/27 07:08:04;;;;;;;14.52;9.40;;;19.90;99.90;;;;;;5149066;27;20186;-52
2022/06/27 07:10:30;;;;;;;13.50;9.50;;;20.10;99.90;;;;;;5151532;27;20230;-58
2022/06/27 07:12:56;;;;;;;12.07;9.60;;;20.20;99.90;;;;;;5136313;27;20208;-51
2022/06/27 07:15:21;;;;;;;13.57;9.35;;;20.30;99.90;;;;;;5131081;28;20172;-50
2022/06/27 07:17:49;;;;;;;12.45;9.07;;;20.30;99.90;;;;;;5131297;28;20163;-56
2022/06/27 07:20:19;;;;;;;11.98;8.23;;;20.30;99.90;;;;;;5131061;28;20197;-51
2022/06/27 07:22:45;;;;;;;10.50;8.23;;;20.30;99.90;;;;;;5131477;28;20191;-52
2022/06/27 07:25:11;;;;;;;9.73;7.82;;;20.40;99.90;;;;;;5130828;28;20240;-56
2022/06/27 07:27:40;;;;;;;9.88;7.40;;;20.40;99.90;;;;;;5130738;28;20168;-54
2022/06/27 07:30:11;;;;;;;15.15;7.47;;;20.40;99.90;;;;;;5130778;28;20192;-50
2022/06/27 07:32:39;;;;;;;9.30;7.97;;;20.30;99.90;;;;;;5131023;28;20164;-53
2022/06/27 07:35:07;;;;;;;9.77;7.90;;;20.30;99.90;;;;;;5130829;27;20175;-59
2022/06/27 07:37:34;;;;;;;9.30;8.13;;;20.50;99.90;;;;;;5133641;27;20532;-52
2022/06/27 07:39:59;;;;;;;11.00;8.50;;;20.60;99.90;;;;;;5134828;27;20172;-52
2022/06/27 07:42:25;;;;;;;9.80;8.82;;;20.70;99.90;;;;;;5134425;27;20678;-52
2022/06/27 07:44:51;;;;;;;10.55;7.97;;;20.70;99.90;;;;;;5134428;27;20179;-52
2022/06/27 07:47:17;;;;;;;13.45;8.88;;;20.80;99.90;;;;;;5147644;27;20180;-52
2022/06/27 07:49:43;;;;;;;10.07;8.65;;;20.80;99.90;;;;;;5155056;27;20155;-52
2022/06/27 07:52:08;;;;;;;10.60;8.07;;;20.90;99.90;;;;;;5136450;27;20170;-52
2022/06/27 07:54:34;;;;;;;9.68;8.65;;;20.80;99.90;;;;;;5155041;27;20166;-52
2022/06/27 07:57:02;;;;;;;13.10;8.68;;;20.60;99.90;;;;;;5154960;27;20164;-52
2022/06/27 07:59:28;;;;;;;9.68;7.95;;;20.50;99.90;;;;;;5154939;27;20262;-52
2022/06/27 08:01:54;;;;;;;9.77;8.30;;;20.40;99.90;;;;;;5154738;27;20199;-52
2022/06/27 08:04:19;;;;;;;9.82;8.38;;;20.30;99.90;;;;;;5154863;27;20182;-53
2022/06/27 08:06:50;;;;;;;13.88;8.32;;;20.20;99.90;;;;;;5154862;27;20601;-52
2022/06/27 08:09:19;;;;;;;11.57;8.38;;;20.30;99.90;;;;;;5154765;27;20259;-52
2022/06/27 08:11:45;;;;;;;11.20;8.43;;;20.20;99.90;;;;;;5155100;27;20219;-52
2022/06/27 08:14:17;;;;;;;11.32;8.45;;;20.00;99.90;;;;;;5154813;27;20551;-52
2022/06/27 08:16:45;;;;;;;12.27;8.18;;;20.10;99.90;;;;;;5154454;27;20546;-52
2022/06/27 08:19:11;;;;;;;9.15;8.25;;;20.20;99.90;;;;;;5154499;27;20155;-52
2022/06/27 08:21:38;;;;;;;8.90;8.00;;;20.20;99.90;;;;;;5154254;27;20202;-52
2022/06/27 08:24:09;;;;;;;9.32;7.55;;;20.10;99.90;;;;;;5154607;27;20178;-52
2022/06/27 08:26:36;;;;;;;9.27;8.25;;;20.10;99.90;;;;;;5154627;27;20171;-52
2022/06/27 08:29:03;;;;;;;11.68;8.70;;;20.10;99.90;;;;;;5154147;27;20171;-52
2022/06/27 08:31:30;;;;;;;14.13;8.23;;;20.00;99.90;;;;;;5154187;27;20168;-52
2022/06/27 08:34:00;;;;;;;8.70;7.82;;;20.00;99.90;;;;;;5154311;27;20160;-52
2022/06/27 08:36:30;;;;;;;8.38;7.57;;;20.00;99.90;;;;;;5153956;27;20670;-53
2022/06/27 08:39:01;;;;;;;8.75;7.95;;;20.00;99.90;;;;;;5154100;27;20167;-53
2022/06/27 08:41:27;;;;;;;9.98;7.47;;;20.10;99.90;;;;;;5154162;27;20246;-52
2022/06/27 08:43:58;;;;;;;8.63;7.82;;;20.20;99.90;;;;;;5135594;27;20624;-53
2022/06/27 08:46:25;;;;;;;8.65;7.57;;;20.10;99.90;;;;;;5153570;27;20210;-52
2022/06/27 08:48:51;;;;;;;10.10;7.82;;;20.20;99.90;;;;;;5153926;27;20203;-52
2022/06/27 08:51:18;;;;;;;9.80;8.70;;;20.20;99.90;;;;;;5154278;27;20259;-53
2022/06/27 08:53:45;;;;;;;12.13;7.72;;;20.10;99.90;;;;;;5154482;27;20182;-53
2022/06/27 08:56:14;;;;;;;13.68;7.93;;;20.20;99.90;;;;;;5153672;27;20151;-53
2022/06/27 08:58:42;;;;;;;10.90;7.13;;;20.20;99.90;;;;;;5153825;27;20175;-53
2022/06/27 09:01:09;;;;;;;13.55;7.43;;;20.10;99.90;;;;;;5153760;27;20201;-53
2022/06/27 09:03:36;;;;;;;12.25;7.55;;;20.10;99.90;;;;;;5153615;27;20168;-52
2022/06/27 09:06:06;;;;;;;12.90;8.10;;;20.20;99.90;;;;;;5135469;27;20525;-53
2022/06/27 09:08:36;;;;;;;12.50;7.70;;;20.30;99.90;;;;;;5153452;27;20171;-53
2022/06/27 09:11:03;;;;;;;13.65;7.93;;;20.40;99.90;;;;;;5153483;27;20207;-53
2022/06/27 09:13:30;;;;;;;9.30;7.93;;;20.50;99.90;;;;;;5153352;27;20172;-53
2022/06/27 09:15:59;;;;;;;13.00;7.72;;;20.40;99.90;;;;;;5153484;27;20635;-53
2022/06/27 09:18:37;;;;;;;15.00;7.68;;;20.50;99.90;;;;;;5153820;27;20168;-53
2022/06/27 09:21:05;;;;;;;10.60;7.15;;;20.60;99.90;;;;;;5153625;27;20202;-53
2022/06/27 09:23:49;;;;;;;12.35;8.02;;;20.80;99.90;;;;;;5153696;27;20197;-52
2022/06/27 09:26:20;;;;;;;14.13;8.20;;;20.90;99.90;;;;;;5153841;27;20171;-53
2022/06/27 09:28:50;;;;;;;13.05;8.98;;;21.00;99.90;;;;;;5153739;27;20171;-53
2022/06/27 09:31:25;;;;;;;11.48;8.57;;;21.10;99.90;;;;;;5153462;27;20171;-52
2022/06/27 09:34:26;;;;;;;13.02;8.57;;;21.20;99.90;;;;;;5153151;27;20174;-52
2022/06/27 09:36:57;;;;;;;11.73;8.52;;;21.40;99.90;;;;;;5153171;27;20167;-52
2022/06/27 09:39:29;;;;;;;9.77;8.05;;;21.60;99.90;;;;;;5153187;27;20163;-53
2022/06/27 09:41:58;;;;;;;11.10;9.02;;;21.80;99.90;;;;;;5153385;27;20207;-52
2022/06/27 09:44:30;;;;;;;14.35;8.48;;;21.90;99.90;;;;;;5153309;27;20156;-52
2022/06/27 09:47:25;;;;;;;12.77;7.57;;;22.00;99.90;;;;;;5152440;27;20163;-53
2022/06/27 09:49:56;;;;;;;10.82;8.73;;;22.10;99.90;;;;;;5152733;27;20243;-52
2022/06/27 09:52:26;;;;;;;10.55;8.90;;;22.10;99.90;;;;;;5152901;27;20651;-53
2022/06/27 09:54:54;;;;;;;14.05;8.73;;;22.10;99.90;;;;;;5152712;27;20707;-52
2022/06/27 09:57:20;;;;;;;12.10;8.80;;;21.90;99.90;;;;;;5152633;27;20243;-52
2022/06/27 09:59:50;;;;;;;10.25;8.90;;;21.80;99.90;;;;;;5152191;27;20235;-53
2022/06/27 10:02:18;;;;;;;10.35;8.18;;;22.30;99.90;;;;;;5152867;27;20535;-52
2022/06/27 10:04:44;;;;;;;9.95;8.20;;;22.80;99.90;;;;;;5152315;27;20179;-53
2022/06/27 10:07:12;;;;;;;15.55;10.13;;;22.70;99.90;;;;;;5152486;27;20191;-52
2022/06/27 10:09:40;;;;;;;11.60;9.00;;;22.80;99.90;;;;;;5152559;27;20294;-53
2022/06/27 10:12:28;;;;;;;11.90;8.95;;;22.70;99.90;;;;;;5152809;27;20167;-53
2022/06/27 10:15:14;;;;;;;17.15;8.60;;;22.40;99.90;;;;;;5155083;27;20163;-52
2022/06/27 10:17:45;;;;;;;15.70;9.30;;;22.30;99.90;;;;;;5139296;27;20171;-53
2022/06/27 10:20:20;;;;;;;10.93;8.85;;;22.00;99.90;;;;;;5132822;27;20187;-52
2022/06/27 10:23:08;;;;;;;11.05;9.23;;;22.00;99.90;;;;;;5131998;27;20198;-53
2022/06/27 10:25:38;;;;;;;10.00;8.98;;;21.80;99.90;;;;;;5102731;28;20176;-53
2022/06/27 10:28:10;;;;;;;11.07;8.63;;;21.90;99.90;;;;;;5131768;28;20198;-53
2022/06/27 10:30:44;;;;;;;12.50;8.88;;;21.60;99.90;;;;;;5131634;28;20199;-53
2022/06/27 10:33:21;;;;;;;10.07;8.30;;;21.40;99.90;;;;;;5131653;28;20160;-53
2022/06/27 10:38:27;;;;;;;11.68;9.65;;;21.60;99.90;;;;;;5131663;28;20597;-53
2022/06/27 10:40:54;;;;;;;13.70;9.20;;;21.50;99.90;;;;;;5131450;28;20249;-52
2022/06/27 10:43:43;;;;;;;13.27;8.88;;;21.60;99.90;;;;;;5131532;28;20172;-52
2022/06/27 10:46:11;;;;;;;15.20;9.25;;;21.50;99.90;;;;;;5131663;28;20632;-53
2022/06/27 10:48:48;;;;;;;15.57;9.20;;;21.60;99.90;;;;;;5131204;28;20167;-53
2022/06/27 10:51:26;;;;;;;15.05;9.60;;;21.60;99.90;;;;;;5131634;28;20582;-53
2022/06/27 10:54:09;;;;;;;12.95;9.32;;;21.50;99.90;;;;;;5131419;28;20224;-53
2022/06/27 10:56:45;;;;;;;15.20;9.20;;;21.50;99.90;;;;;;5131333;28;20617;-53
2022/06/27 10:59:14;;;;;;;10.95;8.73;;;21.50;99.90;;;;;;5130633;28;20172;-52
2022/06/27 11:02:03;;;;;;;13.70;10.02;;;21.70;99.90;;;;;;5130928;28;20260;-52
2022/06/27 11:04:37;;;;;;;16.65;9.88;;;21.60;99.90;;;;;;5130954;28;20164;-52
2022/06/27 11:07:09;;;;;;;10.77;9.38;;;21.70;99.90;;;;;;5130699;28;20224;-52
2022/06/27 11:09:35;;;;;;;15.27;9.95;;;21.90;99.90;;;;;;5130618;27;20204;-53
2022/06/27 11:12:01;;;;;;;12.40;9.40;;;22.10;99.90;;;;;;5134683;27;20167;-53
2022/06/27 11:14:27;;;;;;;13.15;10.15;;;22.10;99.90;;;;;;5116146;27;20168;-52
2022/06/27 11:16:53;;;;;;;13.40;10.43;;;22.00;99.90;;;;;;5134899;27;20220;-52
2022/06/27 11:22:21;;;;;;;13.93;8.73;;;22.20;99.90;;;;;;5134834;27;20240;-52
2022/06/27 11:24:50;;;;;;;14.05;9.82;;;22.40;99.90;;;;;;5135121;27;20163;-53
2022/06/27 11:27:16;;;;;;;13.63;9.85;;;22.40;99.90;;;;;;5134944;27;20194;-53
2022/06/27 11:32:32;;;;;;;14.30;10.27;;;22.30;99.90;;;;;;5134801;27;20657;-52
2022/06/27 11:34:58;;;;;;;11.38;9.23;;;22.20;99.90;;;;;;5134177;27;20167;-53
2022/06/27 11:37:24;;;;;;;12.55;9.57;;;22.50;99.90;;;;;;5134333;27;20172;-52
2022/06/27 11:39:58;;;;;;;11.77;8.80;;;22.90;99.90;;;;;;5134605;27;20163;-52
2022/06/27 11:42:28;;;;;;;11.18;8.38;;;23.00;99.90;;;;;;5134716;27;20235;-52
2022/06/27 11:45:09;;;;;;;16.67;11.43;;;22.90;99.90;;;;;;5134238;27;20624;-53
2022/06/27 11:47:37;;;;;;;15.68;10.27;;;22.90;99.90;;;;;;5134221;27;20167;-52
2022/06/27 11:50:11;;;;;;;15.55;9.73;;;22.90;99.90;;;;;;5134342;27;20182;-52
2022/06/27 11:52:45;;;;;;;12.82;10.07;;;23.00;99.90;;;;;;5134523;27;20172;-52
2022/06/27 11:55:17;;;;;;;14.70;9.15;;;23.20;99.90;;;;;;5134346;27;20529;-53
2022/06/27 11:57:54;;;;;;;11.45;8.68;;;23.20;99.90;;;;;;5134265;27;20220;-52
2022/06/27 12:00:32;;;;;;;11.48;8.55;;;23.50;99.90;;;;;;5134207;27;20159;-52
2022/06/27 12:03:04;;;;;;;10.27;7.82;;;23.50;99.90;;;;;;5134146;27;20193;-52
2022/06/27 12:05:30;;;;;;;10.88;6.85;;;23.70;99.90;;;;;;5134111;27;20182;-53
2022/06/27 12:08:07;;;;;;;5.60;4.30;;;23.60;99.90;;;;;;5115618;27;20174;-52
2022/06/27 12:10:38;;;;;;;10.55;6.22;;;23.30;99.90;;;;;;5133736;27;20211;-52
2022/06/27 12:13:17;;;;;;;8.00;4.60;;;23.30;99.90;;;;;;5134208;27;20172;-52
2022/06/27 12:15:46;;;;;;;10.05;5.18;;;23.10;99.90;;;;;;5133929;27;20238;-53
2022/06/27 12:18:14;;;;;;;8.00;5.10;;;23.00;99.90;;;;;;5133643;27;20708;-52
2022/06/27 12:20:42;;;;;;;7.88;6.80;;;22.80;99.90;;;;;;5133755;27;20728;-52
2022/06/27 12:23:08;;;;;;;9.75;6.28;;;22.90;99.90;;;;;;5133050;27;20524;-52
2022/06/27 12:25:36;;;;;;;10.52;5.57;;;23.20;99.90;;;;;;5133709;27;20220;-52
2022/06/27 12:28:06;;;;;;;6.43;5.07;;;23.50;99.90;;;;;;5133849;27;20172;-52
2022/06/27 12:30:33;;;;;;;9.90;5.65;;;23.60;99.90;;;;;;5133457;27;20164;-52
2022/06/27 12:32:59;;;;;;;8.15;5.78;;;23.90;99.90;;;;;;5133748;27;20190;-52
2022/06/27 12:35:24;;;;;;;9.50;4.95;;;23.90;99.90;;;;;;5133767;27;20631;-52
2022/06/27 12:37:50;;;;;;;8.13;5.60;;;24.20;99.90;;;;;;5133325;27;20576;-52
2022/06/27 12:40:16;;;;;;;10.75;5.88;;;24.20;99.90;;;;;;5133697;27;20162;-52
2022/06/27 12:42:42;;;;;;;8.90;4.82;;;24.50;99.90;;;;;;5133296;27;20206;-53
2022/06/27 12:45:08;;;;;;;6.70;4.95;;;24.80;99.90;;;;;;5133551;27;20167;-52
2022/06/27 12:47:34;;;;;;;7.88;5.40;;;24.60;99.90;;;;;;5133234;27;20183;-52
2022/06/27 12:49:59;;;;;;;11.23;5.70;;;24.90;99.90;;;;;;5133243;27;20160;-52
2022/06/27 12:52:25;;;;;;;6.75;4.97;;;24.90;99.90;;;;;;5133209;27;20163;-52